Time;durP1;ratioP1;P1;durP2;ratioP2;P2;SDS_P1;SDS_P2;PMS_P1;PMS_P2;Temp;Humidity;BMP_temperature;BMP_pressure;BME280_temperature;BME280_humidity;BME280_pressure;Samples;Min_cycle;Max_cycle;Signal;HPM_P1;HPM_P2
2021/05/09 00:01:27;;;;;;;4.65;2.20;;;9.80;99.90;;;;;;4992097;28;20375;-76
2021/05/09 00:03:54;;;;;;;1.95;1.70;;;9.80;99.90;;;;;;4950322;28;20739;-75
2021/05/09 00:06:21;;;;;;;3.17;1.70;;;9.80;99.90;;;;;;4951596;28;20042;-75
2021/05/09 00:08:47;;;;;;;2.65;1.40;;;9.70;99.90;;;;;;4970306;28;20038;-76
2021/05/09 00:11:13;;;;;;;2.05;1.60;;;9.70;99.90;;;;;;4973056;28;20118;-75
2021/05/09 00:13:40;;;;;;;2.67;1.73;;;9.60;99.90;;;;;;4940965;28;20043;-77
2021/05/09 00:16:06;;;;;;;2.55;1.88;;;9.60;99.90;;;;;;4957549;28;20432;-76
2021/05/09 00:18:32;;;;;;;3.10;2.08;;;9.60;99.90;;;;;;4972904;28;20045;-76
2021/05/09 00:20:59;;;;;;;2.90;2.13;;;9.50;99.90;;;;;;4973810;28;20031;-76
2021/05/09 00:23:25;;;;;;;2.92;2.03;;;9.50;99.90;;;;;;4972968;28;20039;-75
2021/05/09 00:25:51;;;;;;;1.85;1.50;;;9.50;99.90;;;;;;4957584;28;20183;-75
2021/05/09 00:28:17;;;;;;;2.42;1.90;;;9.50;99.90;;;;;;4973427;28;20042;-69
2021/05/09 00:30:42;;;;;;;2.90;2.10;;;9.50;99.90;;;;;;4957130;28;20038;-75
2021/05/09 00:33:08;;;;;;;4.50;1.90;;;9.50;99.90;;;;;;4973488;28;20492;-75
2021/05/09 00:35:34;;;;;;;3.78;2.67;;;9.40;99.90;;;;;;5005141;28;20044;-75
2021/05/09 00:37:59;;;;;;;5.70;2.58;;;9.50;99.90;;;;;;5019255;28;20026;-75
2021/05/09 00:40:25;;;;;;;3.97;2.58;;;9.40;99.90;;;;;;5020729;28;20121;-77
2021/05/09 00:42:54;;;;;;;4.18;2.55;;;9.40;99.90;;;;;;5014932;28;20456;-75
2021/05/09 00:45:21;;;;;;;4.45;2.30;;;9.40;99.90;;;;;;5013932;28;20459;-72
2021/05/09 00:47:50;;;;;;;4.28;2.58;;;9.40;99.90;;;;;;5014438;28;20034;-76
2021/05/09 00:50:17;;;;;;;4.10;2.97;;;9.40;99.90;;;;;;5014538;28;20033;-69
2021/05/09 00:52:46;;;;;;;4.05;2.58;;;9.40;99.90;;;;;;5013823;28;20482;-76
2021/05/09 00:55:12;;;;;;;6.00;2.47;;;9.40;99.90;;;;;;5014431;28;20026;-76
2021/05/09 00:57:39;;;;;;;3.45;2.55;;;9.40;99.90;;;;;;5013879;28;20018;-75
2021/05/09 01:00:07;;;;;;;4.22;2.22;;;9.40;99.90;;;;;;4984562;28;20022;-75
2021/05/09 01:02:34;;;;;;;3.38;2.35;;;9.40;99.90;;;;;;4994047;28;20121;-75
2021/05/09 01:05:01;;;;;;;3.97;2.30;;;9.40;99.90;;;;;;4994766;28;20031;-73
2021/05/09 01:07:27;;;;;;;3.17;1.88;;;9.50;99.90;;;;;;5009516;28;20101;-76
2021/05/09 01:09:53;;;;;;;2.53;1.52;;;9.50;99.90;;;;;;4996463;28;20117;-76
2021/05/09 01:12:19;;;;;;;2.65;1.58;;;9.50;99.90;;;;;;4996055;28;20079;-68
2021/05/09 01:14:45;;;;;;;1.77;1.13;;;9.60;99.90;;;;;;5014109;28;20022;-76
2021/05/09 01:17:11;;;;;;;2.08;1.30;;;9.50;99.90;;;;;;5013823;28;20021;-76
2021/05/09 01:19:39;;;;;;;2.22;1.35;;;9.60;99.90;;;;;;5013205;28;20445;-76
2021/05/09 01:22:06;;;;;;;1.85;1.33;;;9.60;99.90;;;;;;5012961;28;20032;-76
2021/05/09 01:24:32;;;;;;;2.28;1.90;;;9.50;99.90;;;;;;5012982;28;20064;-76
2021/05/09 01:26:57;;;;;;;2.35;1.52;;;9.50;99.90;;;;;;4972535;28;20133;-76
2021/05/09 01:29:24;;;;;;;2.90;1.40;;;9.50;99.90;;;;;;4971724;28;20057;-75
2021/05/09 01:31:51;;;;;;;3.90;1.80;;;9.50;99.90;;;;;;4972413;28;20034;-76
2021/05/09 01:34:17;;;;;;;1.98;1.63;;;9.50;99.90;;;;;;4972115;28;20089;-70
2021/05/09 01:36:43;;;;;;;3.90;1.50;;;9.50;99.90;;;;;;4971960;28;20043;-76
2021/05/09 01:39:09;;;;;;;3.08;1.52;;;9.50;99.90;;;;;;4972748;28;20039;-76
2021/05/09 01:41:35;;;;;;;1.50;1.40;;;9.50;99.90;;;;;;4955251;28;20039;-73
2021/05/09 01:44:00;;;;;;;2.10;1.58;;;9.50;99.90;;;;;;4972293;28;20039;-77
2021/05/09 01:46:26;;;;;;;2.83;1.38;;;9.50;99.90;;;;;;4955386;28;20098;-74
2021/05/09 01:48:52;;;;;;;3.03;1.58;;;9.50;99.90;;;;;;4972384;28;20551;-76
2021/05/09 01:51:19;;;;;;;3.35;1.70;;;9.40;99.90;;;;;;4972094;28;20350;-69
2021/05/09 01:53:46;;;;;;;4.55;1.50;;;9.30;99.90;;;;;;4963329;28;20537;-76
2021/05/09 01:56:14;;;;;;;2.33;1.55;;;9.40;99.90;;;;;;4952811;29;20045;-75
2021/05/09 01:58:40;;;;;;;2.03;1.60;;;9.40;99.90;;;;;;4951488;28;20085;-76
2021/05/09 02:01:05;;;;;;;2.60;1.65;;;9.40;99.90;;;;;;4995361;28;20057;-76
2021/05/09 02:03:31;;;;;;;1.65;1.35;;;9.40;99.90;;;;;;5003740;28;20061;-76
2021/05/09 02:05:57;;;;;;;2.70;1.55;;;9.40;99.90;;;;;;4995765;28;20375;-75
2021/05/09 02:08:23;;;;;;;1.85;1.42;;;9.40;99.90;;;;;;4995047;28;20545;-73
2021/05/09 02:10:49;;;;;;;1.70;1.55;;;9.50;99.90;;;;;;5013551;28;20061;-75
2021/05/09 02:13:15;;;;;;;2.15;1.40;;;9.50;99.90;;;;;;5013510;28;20099;-76
2021/05/09 02:15:41;;;;;;;1.90;1.70;;;9.50;99.90;;;;;;5012051;28;20030;-71
2021/05/09 02:18:06;;;;;;;3.67;1.85;;;9.40;99.90;;;;;;4995546;28;20033;-76
2021/05/09 02:20:32;;;;;;;1.70;1.30;;;9.40;99.90;;;;;;5012335;28;20037;-74
2021/05/09 02:22:58;;;;;;;2.70;1.83;;;9.40;99.90;;;;;;4995293;28;20434;-75
2021/05/09 02:25:23;;;;;;;2.15;1.40;;;9.40;99.90;;;;;;4994607;28;20129;-75
2021/05/09 02:27:49;;;;;;;2.67;1.50;;;9.30;99.90;;;;;;5012755;28;20030;-76
2021/05/09 02:30:15;;;;;;;1.65;1.55;;;9.30;99.90;;;;;;4994966;28;20033;-74
2021/05/09 02:32:41;;;;;;;1.90;1.30;;;9.30;99.90;;;;;;4993741;28;20034;-74
2021/05/09 02:35:07;;;;;;;2.67;1.50;;;9.20;99.90;;;;;;4995099;28;20026;-76
2021/05/09 02:37:33;;;;;;;2.05;1.45;;;9.20;99.90;;;;;;5011629;28;20029;-77
2021/05/09 02:39:58;;;;;;;2.40;1.60;;;9.20;99.90;;;;;;5012423;28;20037;-75
2021/05/09 02:42:24;;;;;;;3.67;1.55;;;9.20;99.90;;;;;;5011759;28;20039;-75
2021/05/09 02:44:50;;;;;;;3.05;1.73;;;9.10;99.90;;;;;;4986032;28;20456;-76
2021/05/09 02:47:28;;;;;;;1.52;1.40;;;9.10;99.90;;;;;;4981338;28;20037;-75
2021/05/09 02:49:59;;;;;;;3.28;1.73;;;9.10;99.90;;;;;;4994685;28;20072;-76
2021/05/09 02:52:25;;;;;;;3.33;1.60;;;9.10;99.90;;;;;;5011713;28;20474;-75
2021/05/09 02:54:51;;;;;;;2.85;1.88;;;9.10;99.90;;;;;;5011888;28;20050;-75
2021/05/09 02:57:17;;;;;;;5.60;1.80;;;9.10;99.90;;;;;;5012504;28;20105;-74
2021/05/09 02:59:43;;;;;;;2.97;2.08;;;9.20;99.90;;;;;;5011409;28;20030;-70
2021/05/09 03:02:09;;;;;;;3.10;2.20;;;9.20;99.90;;;;;;5012062;28;20522;-75
2021/05/09 03:04:35;;;;;;;2.78;1.98;;;9.20;99.90;;;;;;4993793;28;20038;-74
2021/05/09 03:07:01;;;;;;;3.45;1.88;;;9.20;99.90;;;;;;4999599;28;20034;-76
2021/05/09 03:09:27;;;;;;;2.60;2.08;;;9.20;99.90;;;;;;4991496;28;20070;-76
2021/05/09 03:11:52;;;;;;;2.60;1.83;;;9.30;99.90;;;;;;4992506;28;20034;-74
2021/05/09 03:14:18;;;;;;;3.30;1.65;;;9.30;99.90;;;;;;4992011;28;20030;-77
2021/05/09 03:16:44;;;;;;;2.10;1.60;;;9.30;99.90;;;;;;4974434;28;20030;-75
2021/05/09 03:19:09;;;;;;;2.53;1.70;;;9.30;99.90;;;;;;4975189;28;20384;-75
2021/05/09 03:21:35;;;;;;;2.92;1.55;;;9.30;99.90;;;;;;4973836;28;20034;-75
2021/05/09 03:24:01;;;;;;;3.40;1.60;;;9.40;99.90;;;;;;4992109;28;20035;-75
2021/05/09 03:26:27;;;;;;;2.28;1.58;;;9.40;99.90;;;;;;4981372;28;20120;-76
2021/05/09 03:28:53;;;;;;;2.10;1.60;;;9.40;99.90;;;;;;4974918;28;20078;-75
2021/05/09 03:31:19;;;;;;;2.30;1.50;;;9.40;99.90;;;;;;4974927;28;20034;-75
2021/05/09 03:33:45;;;;;;;1.73;1.58;;;9.40;99.90;;;;;;4973951;28;20042;-75
2021/05/09 03:36:10;;;;;;;2.85;1.50;;;9.40;99.90;;;;;;4974921;28;20022;-75
2021/05/09 03:38:36;;;;;;;2.05;1.60;;;9.30;99.90;;;;;;4991574;28;20381;-75
2021/05/09 03:41:02;;;;;;;1.73;1.35;;;9.30;99.90;;;;;;4977095;28;20040;-74
2021/05/09 03:43:27;;;;;;;2.17;1.60;;;9.30;99.90;;;;;;5008947;28;20084;-75
2021/05/09 03:45:53;;;;;;;1.65;1.48;;;9.30;99.90;;;;;;4996825;28;20030;-75
2021/05/09 03:48:19;;;;;;;1.98;1.30;;;9.20;99.90;;;;;;4997989;28;20121;-75
2021/05/09 03:50:44;;;;;;;2.05;1.58;;;9.20;99.90;;;;;;4997505;28;20125;-74
2021/05/09 03:53:10;;;;;;;1.45;1.35;;;9.20;99.90;;;;;;4997779;28;20140;-74
2021/05/09 03:55:36;;;;;;;2.28;1.75;;;9.20;99.90;;;;;;5014864;28;20084;-75
2021/05/09 03:58:01;;;;;;;3.85;1.83;;;9.10;99.90;;;;;;4998141;28;20125;-73
2021/05/09 04:00:27;;;;;;;4.10;1.90;;;9.10;99.90;;;;;;4997007;28;20030;-75
2021/05/09 04:02:53;;;;;;;2.70;1.75;;;9.10;99.90;;;;;;5015220;28;20033;-74
2021/05/09 04:05:18;;;;;;;2.20;1.45;;;9.10;99.90;;;;;;4998053;28;20034;-74
2021/05/09 04:07:45;;;;;;;2.58;1.70;;;9.10;99.90;;;;;;4979017;28;20022;-74
2021/05/09 04:10:11;;;;;;;2.30;2.10;;;9.00;99.90;;;;;;4978203;28;20428;-73
2021/05/09 04:12:37;;;;;;;2.80;1.90;;;9.00;99.90;;;;;;4977239;28;20061;-74
2021/05/09 04:15:03;;;;;;;1.73;1.50;;;9.00;99.90;;;;;;4978135;28;20054;-74
2021/05/09 04:17:29;;;;;;;4.60;1.80;;;9.10;99.90;;;;;;4994840;28;20398;-75
2021/05/09 04:19:54;;;;;;;2.10;1.65;;;9.10;99.90;;;;;;4977998;28;20022;-74
2021/05/09 04:22:20;;;;;;;3.03;1.80;;;9.10;99.90;;;;;;4995249;28;20121;-68
2021/05/09 04:24:46;;;;;;;2.67;1.77;;;9.20;99.90;;;;;;4994826;28;20038;-73
2021/05/09 04:27:11;;;;;;;1.90;1.60;;;9.20;99.90;;;;;;4978053;28;20076;-73
2021/05/09 04:29:37;;;;;;;1.50;1.40;;;9.30;99.90;;;;;;4994553;28;20178;-74
2021/05/09 04:32:06;;;;;;;3.75;1.67;;;9.30;99.90;;;;;;4995165;28;20037;-74
2021/05/09 04:34:32;;;;;;;3.08;1.50;;;9.40;99.90;;;;;;4994036;28;20530;-70
2021/05/09 04:36:57;;;;;;;1.50;1.40;;;9.50;99.90;;;;;;5010490;28;20100;-73
2021/05/09 04:39:23;;;;;;;2.03;1.52;;;9.50;99.90;;;;;;5016800;28;20053;-68
2021/05/09 04:41:49;;;;;;;2.17;1.70;;;9.60;99.90;;;;;;5016188;28;20035;-74
2021/05/09 04:44:15;;;;;;;2.50;1.38;;;9.70;99.90;;;;;;5014847;28;20034;-74
2021/05/09 04:46:40;;;;;;;1.60;1.50;;;9.80;99.90;;;;;;4996256;28;20034;-75
2021/05/09 04:49:06;;;;;;;4.25;1.73;;;9.90;99.90;;;;;;4999472;28;20096;-75
2021/05/09 04:51:32;;;;;;;1.95;1.70;;;10.00;99.90;;;;;;5001312;28;20033;-74
2021/05/09 04:53:58;;;;;;;2.55;1.60;;;10.00;99.90;;;;;;4996484;28;20046;-75
2021/05/09 04:56:24;;;;;;;2.50;1.67;;;10.10;99.90;;;;;;5013334;28;20452;-68
2021/05/09 04:58:50;;;;;;;1.63;1.52;;;10.10;99.90;;;;;;4996540;28;20125;-74
2021/05/09 05:01:16;;;;;;;2.55;1.50;;;10.20;99.90;;;;;;5014347;28;20065;-74
2021/05/09 05:03:44;;;;;;;2.90;1.95;;;10.10;99.90;;;;;;4996077;28;20061;-74
2021/05/09 05:06:10;;;;;;;1.88;1.65;;;10.20;99.90;;;;;;5014517;28;20076;-75
2021/05/09 05:08:36;;;;;;;4.32;2.45;;;10.20;99.90;;;;;;4995638;28;20368;-73
2021/05/09 05:11:07;;;;;;;3.35;2.38;;;10.30;99.90;;;;;;5014330;28;20033;-75
2021/05/09 05:13:34;;;;;;;7.53;3.42;;;10.30;99.90;;;;;;5013594;28;20105;-76
2021/05/09 05:16:02;;;;;;;4.70;2.80;;;10.30;99.90;;;;;;4996087;28;20022;-76
2021/05/09 05:18:28;;;;;;;4.75;3.60;;;10.30;99.90;;;;;;5013393;28;20025;-74
2021/05/09 05:20:55;;;;;;;5.65;3.42;;;10.30;99.90;;;;;;5013873;28;20026;-76
2021/05/09 05:23:22;;;;;;;5.75;3.70;;;10.40;99.90;;;;;;4996066;28;20052;-70
2021/05/09 05:25:48;;;;;;;6.07;3.70;;;10.40;99.90;;;;;;5013056;28;20030;-77
2021/05/09 05:28:14;;;;;;;7.68;3.90;;;10.50;99.90;;;;;;4996058;28;20030;-76
2021/05/09 05:30:40;;;;;;;4.65;3.42;;;10.60;99.90;;;;;;5009560;28;20077;-73
2021/05/09 05:33:07;;;;;;;4.35;2.88;;;10.60;99.90;;;;;;5013672;28;20091;-74
2021/05/09 05:35:34;;;;;;;6.10;3.72;;;10.70;99.90;;;;;;4995138;28;20034;-73
2021/05/09 05:38:00;;;;;;;4.43;3.83;;;10.70;99.90;;;;;;4996280;28;20116;-76
2021/05/09 05:40:26;;;;;;;5.90;3.58;;;10.80;99.90;;;;;;5012395;28;20104;-71
2021/05/09 05:42:52;;;;;;;6.28;3.78;;;10.90;99.90;;;;;;4995985;28;20029;-76
2021/05/09 05:45:18;;;;;;;8.73;4.10;;;11.10;99.90;;;;;;5013335;28;20483;-75
2021/05/09 05:47:47;;;;;;;6.28;3.63;;;11.20;99.70;;;;;;4995209;28;20022;-76
2021/05/09 05:50:13;;;;;;;4.35;3.10;;;11.20;99.40;;;;;;4995663;28;20033;-75
2021/05/09 05:52:39;;;;;;;4.32;3.05;;;11.30;99.20;;;;;;4994559;28;20022;-74
2021/05/09 05:55:05;;;;;;;4.32;2.85;;;11.30;99.20;;;;;;4995993;28;20034;-75
2021/05/09 05:57:31;;;;;;;3.75;3.20;;;11.30;99.20;;;;;;5012257;28;20030;-75
2021/05/09 05:59:57;;;;;;;4.18;3.50;;;11.40;98.90;;;;;;5013469;28;20030;-76
2021/05/09 06:02:22;;;;;;;4.55;3.40;;;11.60;97.70;;;;;;4995419;28;20037;-69
2021/05/09 06:04:48;;;;;;;4.68;2.95;;;11.70;96.00;;;;;;4994892;28;20030;-75
2021/05/09 06:07:14;;;;;;;4.35;3.88;;;11.90;94.80;;;;;;5012867;28;20026;-73
2021/05/09 06:09:40;;;;;;;4.03;3.17;;;12.10;93.80;;;;;;5012233;28;20459;-70
2021/05/09 06:12:07;;;;;;;3.55;3.00;;;12.20;92.30;;;;;;5013304;28;20032;-76
2021/05/09 06:14:33;;;;;;;5.47;2.72;;;12.40;92.10;;;;;;5019373;28;20117;-74
2021/05/09 06:16:59;;;;;;;2.88;2.60;;;12.60;89.20;;;;;;5013387;28;20113;-76
2021/05/09 06:19:25;;;;;;;3.88;2.53;;;12.70;88.70;;;;;;5012722;28;20032;-69
2021/05/09 06:21:50;;;;;;;6.30;2.50;;;12.80;86.30;;;;;;4995112;28;20130;-77
2021/05/09 06:24:16;;;;;;;8.00;3.55;;;12.90;85.00;;;;;;5009871;28;20387;-76
2021/05/09 06:26:42;;;;;;;5.78;2.63;;;13.10;84.40;;;;;;5011883;28;20258;-76
2021/05/09 06:29:08;;;;;;;3.25;2.40;;;13.10;82.60;;;;;;5012438;28;20109;-76
2021/05/09 06:31:33;;;;;;;4.00;2.20;;;13.30;80.70;;;;;;5011842;28;20034;-75
2021/05/09 06:33:59;;;;;;;4.47;2.17;;;13.50;79.40;;;;;;4995256;28;20190;-76
2021/05/09 06:36:25;;;;;;;3.03;2.63;;;13.60;79.70;;;;;;5012016;28;20053;-69
2021/05/09 06:38:50;;;;;;;5.25;2.20;;;13.70;80.40;;;;;;5012026;28;20040;-74
2021/05/09 06:41:19;;;;;;;4.25;2.50;;;13.80;77.90;;;;;;4994783;28;20037;-76
2021/05/09 06:43:45;;;;;;;5.15;2.53;;;13.90;79.30;;;;;;5011526;28;20040;-75
2021/05/09 06:46:10;;;;;;;3.83;2.63;;;14.00;78.70;;;;;;4995043;28;20399;-75
2021/05/09 06:48:36;;;;;;;3.70;2.85;;;14.20;78.00;;;;;;5011666;28;20030;-77
2021/05/09 06:51:02;;;;;;;4.07;2.80;;;14.30;76.50;;;;;;5012169;28;20057;-76
2021/05/09 06:53:28;;;;;;;3.10;2.30;;;14.40;76.00;;;;;;5011066;28;20127;-75
2021/05/09 06:55:58;;;;;;;2.70;2.22;;;14.60;75.10;;;;;;5009497;28;20069;-76
2021/05/09 06:58:23;;;;;;;3.65;2.00;;;14.70;74.60;;;;;;5012011;28;20109;-68
2021/05/09 07:00:50;;;;;;;3.53;2.45;;;14.80;74.20;;;;;;4994337;28;20168;-77
2021/05/09 07:03:16;;;;;;;3.38;2.25;;;15.00;75.70;;;;;;5012305;28;20037;-76
2021/05/09 07:05:43;;;;;;;2.85;2.13;;;15.20;72.70;;;;;;5009999;28;20105;-74
2021/05/09 07:08:08;;;;;;;2.85;1.98;;;15.50;79.40;;;;;;4975135;28;20027;-76
2021/05/09 07:10:35;;;;;;;3.60;2.35;;;15.60;79.20;;;;;;4974461;28;20030;-76
2021/05/09 07:13:02;;;;;;;4.07;1.90;;;15.80;79.00;;;;;;4992023;28;20372;-74
2021/05/09 07:15:35;;;;;;;4.40;2.80;;;16.20;81.80;;;;;;4991464;28;20531;-70
2021/05/09 07:18:17;;;;;;;2.88;1.92;;;16.20;77.90;;;;;;4978725;28;20034;-76
2021/05/09 07:20:45;;;;;;;3.95;2.03;;;16.50;79.10;;;;;;5010170;28;20030;-76
2021/05/09 07:23:13;;;;;;;4.10;2.53;;;16.70;79.20;;;;;;5011780;28;20040;-72
2021/05/09 07:25:40;;;;;;;3.25;1.90;;;16.90;79.90;;;;;;4993111;28;20037;-71
2021/05/09 07:28:13;;;;;;;2.53;1.70;;;17.00;65.50;;;;;;5011281;28;20030;-73
2021/05/09 07:30:40;;;;;;;2.47;1.70;;;17.20;65.50;;;;;;4993232;28;20375;-71
2021/05/09 07:33:10;;;;;;;3.88;2.05;;;17.40;64.50;;;;;;4993540;28;20032;-72
2021/05/09 07:35:36;;;;;;;6.78;4.07;;;17.50;64.30;;;;;;5010710;28;20021;-72
2021/05/09 07:38:07;;;;;;;1.58;1.45;;;17.80;63.70;;;;;;5011402;28;20471;-74
2021/05/09 07:40:33;;;;;;;3.13;1.42;;;18.00;63.40;;;;;;4992925;28;20026;-72
2021/05/09 07:42:59;;;;;;;3.15;1.27;;;18.10;62.00;;;;;;5011668;28;20108;-72
2021/05/09 07:45:25;;;;;;;1.45;1.35;;;18.30;61.30;;;;;;4994059;28;20113;-68
2021/05/09 07:47:51;;;;;;;3.03;1.50;;;18.50;61.90;;;;;;5010936;28;20052;-72
2021/05/09 07:50:18;;;;;;;1.42;1.17;;;18.70;61.60;;;;;;4994026;28;20431;-73
2021/05/09 07:52:46;;;;;;;2.10;1.30;;;18.10;60.10;;;;;;5009342;28;20029;-72
2021/05/09 07:55:12;;;;;;;2.17;1.58;;;19.10;58.80;;;;;;5011382;28;20515;-73
2021/05/09 07:57:38;;;;;;;2.92;1.30;;;19.30;58.20;;;;;;5010557;28;20061;-73
2021/05/09 08:00:11;;;;;;;1.67;1.30;;;19.40;58.20;;;;;;5010460;28;20058;-71
2021/05/09 08:02:36;;;;;;;4.85;1.45;;;19.70;56.80;;;;;;5009221;28;20492;-72
2021/05/09 08:05:03;;;;;;;1.55;1.17;;;19.90;57.50;;;;;;5011225;28;20046;-72
2021/05/09 08:07:29;;;;;;;2.38;1.33;;;;;;;;;;4977581;28;20464;-68
2021/05/09 08:09:55;;;;;;;1.77;1.40;;;20.20;56.50;;;;;;4991055;28;20105;-72
2021/05/09 08:12:20;;;;;;;1.40;1.30;;;20.50;55.30;;;;;;4997050;28;20109;-69
2021/05/09 08:14:46;;;;;;;1.95;1.40;;;20.70;55.10;;;;;;4992639;28;20066;-73
2021/05/09 08:17:12;;;;;;;2.90;1.10;;;20.70;55.70;;;;;;5011345;28;20030;-73
2021/05/09 08:19:37;;;;;;;1.45;1.25;;;20.80;56.00;;;;;;4993109;28;20030;-71
2021/05/09 08:22:04;;;;;;;2.47;1.10;;;20.90;55.80;;;;;;4993858;28;20125;-73
2021/05/09 08:24:30;;;;;;;1.63;1.50;;;21.10;54.40;;;;;;5011143;28;20033;-68
2021/05/09 08:26:57;;;;;;;2.00;1.45;;;21.30;53.10;;;;;;4993567;28;20033;-74
2021/05/09 08:29:23;;;;;;;2.95;1.38;;;21.50;53.50;;;;;;4993539;28;20041;-72
2021/05/09 08:31:49;;;;;;;4.55;1.73;;;21.80;53.30;;;;;;5012928;28;20462;-73
2021/05/09 08:34:14;;;;;;;5.40;1.58;;;21.90;54.30;;;;;;5015584;28;20030;-75
2021/05/09 08:36:40;;;;;;;1.35;1.20;;;22.00;55.00;;;;;;4996761;28;20034;-74
2021/05/09 08:39:06;;;;;;;3.45;1.63;;;22.20;50.50;;;;;;5014895;28;20486;-71
2021/05/09 08:41:40;;;;;;;1.73;1.38;;;22.40;51.10;;;;;;5013464;28;20037;-73
2021/05/09 08:44:10;;;;;;;1.67;1.00;;;22.40;50.10;;;;;;5014668;28;20037;-74
2021/05/09 08:46:37;;;;;;;0.70;0.70;;;22.50;49.20;;;;;;4996532;28;20050;-73
2021/05/09 08:49:04;;;;;;;0.77;0.70;;;22.70;44.70;;;;;;5014807;28;20045;-73
2021/05/09 08:51:31;;;;;;;1.50;1.00;;;23.00;44.20;;;;;;5005125;28;20037;-71
2021/05/09 08:53:57;;;;;;;1.42;0.90;;;23.20;43.60;;;;;;4977638;28;20128;-73
2021/05/09 08:56:26;;;;;;;1.08;0.73;;;23.50;42.70;;;;;;4994931;28;20066;-72
2021/05/09 08:58:55;;;;;;;2.77;0.70;;;23.70;42.70;;;;;;4976384;28;20292;-73
2021/05/09 09:01:28;;;;;;;1.05;0.95;;;23.90;43.20;;;;;;4995101;28;20278;-75
2021/05/09 09:03:53;;;;;;;2.15;1.30;;;24.10;42.00;;;;;;4994422;28;20026;-75
2021/05/09 09:06:39;;;;;;;3.28;1.02;;;24.30;41.90;;;;;;4998527;28;20026;-73
2021/05/09 09:09:05;;;;;;;5.93;1.35;;;24.50;41.90;;;;;;4996485;28;20025;-74
2021/05/09 09:11:31;;;;;;;2.00;1.42;;;24.60;41.90;;;;;;4995961;28;20030;-69
2021/05/09 09:14:13;;;;;;;2.15;1.05;;;24.70;42.10;;;;;;4995975;28;20076;-74
2021/05/09 09:16:39;;;;;;;4.18;1.00;;;24.90;41.90;;;;;;5013239;28;20110;-73
2021/05/09 09:19:09;;;;;;;1.35;0.70;;;25.20;55.70;;;;;;5013897;28;20037;-76
2021/05/09 09:21:35;;;;;;;1.08;0.90;;;25.30;55.60;;;;;;5012784;28;20092;-75
2021/05/09 09:24:05;;;;;;;2.03;1.08;;;25.50;56.50;;;;;;5014027;28;20042;-76
2021/05/09 09:26:41;;;;;;;2.78;0.90;;;25.70;59.70;;;;;;4995386;28;20087;-70
2021/05/09 09:29:43;;;;;;;1.80;1.20;;;26.20;60.90;;;;;;4995801;28;20033;-76
2021/05/09 09:32:10;;;;;;;1.70;1.13;;;26.00;45.50;;;;;;4933806;29;20063;-77
2021/05/09 09:34:41;;;;;;;2.58;0.93;;;26.00;42.30;;;;;;4979860;28;20092;-76
2021/05/09 09:37:07;;;;;;;2.65;1.30;;;26.30;39.00;;;;;;4983308;28;20026;-73
2021/05/09 09:39:48;;;;;;;2.95;1.10;;;26.40;42.00;;;;;;4993285;28;20030;-75
2021/05/09 09:42:14;;;;;;;;;;;;;;;;;;4976436;28;20554;-74
2021/05/09 09:44:39;;;;;;;1.52;1.00;;;26.80;38.80;;;;;;4992830;28;19909;-71
2021/05/09 09:47:05;;;;;;;4.22;1.20;;;26.80;39.20;;;;;;4993880;28;20022;-80
2021/05/09 09:49:35;;;;;;;2.60;0.90;;;27.00;38.10;;;;;;4993395;28;20023;-71
2021/05/09 09:52:07;;;;;;;1.08;1.00;;;27.10;37.40;;;;;;4994400;28;20026;-79
2021/05/09 09:54:45;;;;;;;2.13;1.30;;;27.20;37.50;;;;;;4992816;28;20057;-69
2021/05/09 09:57:22;;;;;;;2.13;1.05;;;27.30;37.80;;;;;;4994923;28;20041;-74
2021/05/09 10:00:14;;;;;;;2.67;1.00;;;27.50;37.80;;;;;;4974233;28;20026;-72
2021/05/09 10:02:42;;;;;;;10.98;1.23;;;27.60;37.40;;;;;;5010404;28;20038;-77
2021/05/09 10:05:09;;;;;;;1.95;1.00;;;27.70;36.90;;;;;;4995603;28;20468;-75
2021/05/09 10:07:35;;;;;;;3.50;1.08;;;27.70;36.90;;;;;;5006328;28;20471;-74
2021/05/09 10:10:02;;;;;;;2.38;1.05;;;27.90;37.30;;;;;;5012993;28;20037;-74
2021/05/09 10:12:29;;;;;;;3.92;1.05;;;28.20;35.00;;;;;;4995783;28;20026;-72
2021/05/09 10:14:55;;;;;;;4.82;1.13;;;28.30;34.90;;;;;;5012850;28;20498;-73
2021/05/09 10:17:22;;;;;;;1.48;1.00;;;28.30;36.10;;;;;;4995467;28;20053;-76
2021/05/09 10:19:48;;;;;;;1.83;1.27;;;28.40;35.30;;;;;;5012019;28;20022;-75
2021/05/09 10:22:26;;;;;;;2.67;1.33;;;28.50;35.20;;;;;;5013093;28;20360;-80
2021/05/09 10:24:52;;;;;;;1.17;1.08;;;28.70;35.20;;;;;;4992836;28;20092;-76
2021/05/09 10:27:17;;;;;;;1.10;1.00;;;28.90;35.20;;;;;;4976376;28;20030;-76
2021/05/09 10:29:45;;;;;;;1.48;1.10;;;29.10;34.30;;;;;;4993024;28;20065;-76
2021/05/09 10:32:20;;;;;;;3.53;1.30;;;29.30;33.50;;;;;;4994149;28;20031;-75
2021/05/09 10:34:55;;;;;;;2.53;1.10;;;29.30;33.60;;;;;;4995188;28;20053;-76
2021/05/09 10:40:20;;;;;;;2.22;1.30;;;29.50;31.50;;;;;;5012725;28;20041;-77
2021/05/09 10:42:47;;;;;;;1.90;1.25;;;29.70;31.90;;;;;;5012221;28;20111;-77
2021/05/09 10:45:35;;;;;;;1.70;1.13;;;29.80;32.90;;;;;;4995179;28;20037;-75
2021/05/09 10:48:13;;;;;;;1.95;0.95;;;29.90;31.00;;;;;;5011204;28;20033;-77
2021/05/09 10:50:40;;;;;;;1.73;1.00;;;29.90;31.80;;;;;;4993137;28;20080;-75
2021/05/09 10:53:06;;;;;;;2.63;0.88;;;29.90;30.30;;;;;;5012038;28;20057;-76
2021/05/09 10:55:38;;;;;;;1.95;1.00;;;29.90;30.00;;;;;;4989787;28;20034;-69
2021/05/09 10:58:15;;;;;;;2.55;1.05;;;29.90;30.30;;;;;;5011244;28;20058;-77
2021/05/09 11:00:59;;;;;;;1.75;1.13;;;30.20;29.90;;;;;;4992243;28;20041;-76
2021/05/09 11:03:37;;;;;;;2.92;1.00;;;30.20;29.80;;;;;;5012031;28;20034;-76
2021/05/09 11:06:39;;;;;;;1.33;1.10;;;30.30;29.70;;;;;;4989892;28;20030;-75
2021/05/09 11:09:06;;;;;;;2.42;0.93;;;30.30;29.80;;;;;;5002258;28;20037;-75
2021/05/09 11:11:32;;;;;;;2.38;0.90;;;30.40;29.80;;;;;;5011100;28;20410;-71
2021/05/09 11:14:00;;;;;;;5.25;1.60;;;30.40;29.30;;;;;;4994147;28;20033;-77
2021/05/09 11:16:40;;;;;;;0.93;0.70;;;30.40;29.40;;;;;;5011066;28;20033;-77
2021/05/09 11:19:17;;;;;;;1.42;0.77;;;30.40;29.30;;;;;;4994772;28;20456;-77
2021/05/09 11:21:49;;;;;;;1.65;0.88;;;30.50;29.50;;;;;;4993609;28;20037;-77
2021/05/09 11:24:22;;;;;;;1.83;0.90;;;30.50;29.50;;;;;;5011982;28;20038;-74
2021/05/09 11:26:49;;;;;;;1.67;0.85;;;30.70;29.60;;;;;;4978864;28;20430;-74
2021/05/09 11:29:21;;;;;;;1.67;0.95;;;30.90;29.00;;;;;;5011793;28;20113;-75
2021/05/09 11:31:56;;;;;;;1.73;0.85;;;30.90;29.20;;;;;;4992700;28;20033;-77
2021/05/09 11:34:24;;;;;;;1.13;1.02;;;31.00;29.20;;;;;;5012217;28;20057;-77
2021/05/09 11:36:52;;;;;;;3.13;0.90;;;31.30;28.90;;;;;;4992413;28;20029;-77
2021/05/09 11:39:34;;;;;;;5.43;1.00;;;31.30;28.70;;;;;;5010806;28;20034;-77
2021/05/09 11:42:12;;;;;;;3.90;3.40;;;31.60;28.80;;;;;;5009207;28;20025;-77
2021/05/09 11:44:42;;;;;;;2.38;1.63;;;31.70;28.60;;;;;;5010034;28;20060;-74
2021/05/09 11:47:12;;;;;;;0.80;0.80;;;31.80;28.50;;;;;;5011369;28;20117;-77
2021/05/09 11:49:39;;;;;;;1.90;0.82;;;31.90;28.20;;;;;;4983148;28;20030;-70
2021/05/09 11:52:13;;;;;;;1.77;0.82;;;32.10;28.00;;;;;;4988055;28;20407;-77
2021/05/09 11:54:44;;;;;;;0.85;0.80;;;32.10;27.70;;;;;;5009680;28;20046;-76
2021/05/09 11:57:10;;;;;;;1.48;0.65;;;31.90;27.80;;;;;;5009583;28;20046;-76
2021/05/09 11:59:43;;;;;;;2.25;0.82;;;32.00;27.80;;;;;;4993442;28;20049;-70
2021/05/09 12:02:21;;;;;;;2.75;1.17;;;32.10;27.70;;;;;;4994062;28;20045;-76
2021/05/09 12:04:57;;;;;;;1.73;0.75;;;32.20;27.30;;;;;;5010748;28;20026;-77
2021/05/09 12:07:28;;;;;;;0.82;0.80;;;32.20;27.50;;;;;;4982433;28;20026;-75
2021/05/09 12:10:07;;;;;;;1.17;0.82;;;32.10;27.70;;;;;;5011642;28;20022;-76
2021/05/09 12:12:35;;;;;;;3.03;0.80;;;32.20;27.90;;;;;;5015269;28;20446;-76
2021/05/09 12:15:06;;;;;;;2.55;0.95;;;32.30;27.70;;;;;;5014573;28;20022;-76
2021/05/09 12:17:32;;;;;;;1.27;0.95;;;32.40;27.60;;;;;;4996898;28;20030;-77
2021/05/09 12:19:59;;;;;;;1.58;1.00;;;32.70;27.50;;;;;;4998391;28;20023;-76
2021/05/09 12:22:25;;;;;;;1.70;0.75;;;32.80;27.30;;;;;;4995286;28;20434;-75
2021/05/09 12:24:56;;;;;;;1.27;1.10;;;32.80;27.30;;;;;;4993550;28;20040;-76
2021/05/09 12:27:24;;;;;;;1.40;1.02;;;32.90;27.20;;;;;;5004825;28;20034;-76
2021/05/09 12:29:55;;;;;;;1.45;0.93;;;33.00;27.20;;;;;;5013765;28;20030;-76
2021/05/09 12:32:31;;;;;;;2.08;1.13;;;33.20;27.60;;;;;;4996607;28;20368;-76
2021/05/09 12:35:00;;;;;;;3.30;0.95;;;33.30;27.30;;;;;;5012679;28;20096;-71
2021/05/09 12:37:29;;;;;;;1.75;1.00;;;33.30;27.20;;;;;;5013581;28;20030;-81
2021/05/09 12:40:22;;;;;;;1.73;1.20;;;33.70;27.30;;;;;;4996711;28;20432;-74
2021/05/09 12:43:01;;;;;;;3.60;1.05;;;33.60;27.00;;;;;;5009302;28;20490;-70
2021/05/09 12:45:41;;;;;;;1.40;1.03;;;33.60;26.90;;;;;;4995164;28;20108;-76
2021/05/09 12:48:10;;;;;;;1.90;0.90;;;33.70;26.80;;;;;;4979122;28;20076;-68
2021/05/09 12:50:44;;;;;;;1.85;0.98;;;33.80;27.70;;;;;;5008951;28;20105;-72
2021/05/09 12:53:10;;;;;;;1.88;0.90;;;33.90;27.00;;;;;;5014228;28;20049;-77
2021/05/09 12:55:36;;;;;;;0.82;0.80;;;34.00;27.00;;;;;;5005430;28;20034;-72
2021/05/09 12:58:11;;;;;;;1.42;1.00;;;33.80;27.00;;;;;;5012906;28;20068;-78